Time;durP1;ratioP1;P1;durP2;ratioP2;P2;SDS_P1;SDS_P2;PMS_P1;PMS_P2;Temp;Humidity;BMP_temperature;BMP_pressure;BME280_temperature;BME280_humidity;BME280_pressure;Samples;Min_cycle;Max_cycle;Signal;HPM_P1;HPM_P2
2023/03/18 00:01:57;;;;;;;0.40;0.40;;;;;;;5.93;72.61;99758.59;5047713;28;20025;-63
2023/03/18 00:04:23;;;;;;;0.77;0.77;;;;;;;5.95;72.68;99759.47;5047367;28;20052;-62
2023/03/18 00:06:49;;;;;;;3.75;3.25;;;;;;;5.94;72.75;99765.44;5047555;28;20040;-62
2023/03/18 00:09:14;;;;;;;0.40;0.40;;;;;;;5.92;73.00;99768.91;5047431;28;20026;-62
2023/03/18 00:11:40;;;;;;;0.50;0.50;;;;;;;5.91;73.09;99780.06;5047435;28;20071;-62
2023/03/18 00:14:07;;;;;;;0.50;0.50;;;;;;;5.91;73.06;99774.91;5047302;28;20036;-62
2023/03/18 00:16:34;;;;;;;0.45;0.45;;;;;;;5.84;73.15;99774.06;5047287;28;20105;-63
2023/03/18 00:19:01;;;;;;;0.50;0.50;;;;;;;5.87;73.18;99768.91;5046855;28;20052;-62
2023/03/18 00:21:27;;;;;;;0.60;0.60;;;;;;;5.90;72.99;99778.34;5047301;28;20064;-63
2023/03/18 00:23:55;;;;;;;0.50;0.50;;;;;;;5.83;73.50;99777.50;5047272;28;20025;-63
2023/03/18 00:26:21;;;;;;;0.40;0.40;;;;;;;5.86;73.30;99771.47;5047361;28;20025;-61
2023/03/18 00:28:46;;;;;;;2.22;2.13;;;;;;;5.86;73.53;99769.75;5047042;28;20021;-62
2023/03/18 00:31:12;;;;;;;1.13;1.13;;;;;;;5.91;73.25;99769.78;5047248;28;20052;-61
2023/03/18 00:33:40;;;;;;;1.20;1.20;;;;;;;5.98;73.24;99757.72;5046879;28;20025;-62
2023/03/18 00:36:08;;;;;;;0.55;0.55;;;;;;;5.99;73.20;99751.72;5047221;28;20124;-63
2023/03/18 00:38:35;;;;;;;0.60;0.60;;;;;;;5.96;73.27;99747.41;5046930;28;20030;-63
2023/03/18 00:41:03;;;;;;;0.50;0.50;;;;;;;5.86;73.56;99748.28;5046891;28;20500;-62
2023/03/18 00:43:32;;;;;;;0.55;0.55;;;;;;;5.73;74.17;99750.00;5046667;28;20029;-62
2023/03/18 00:45:59;;;;;;;0.45;0.45;;;;;;;5.63;74.83;99755.13;5046840;28;20407;-62
2023/03/18 00:48:24;;;;;;;0.40;0.40;;;;;;;5.58;74.95;99741.38;5046348;28;20041;-62
2023/03/18 00:50:50;;;;;;;0.75;0.75;;;;;;;5.62;75.09;99755.13;5046655;28;20036;-63
2023/03/18 00:53:17;;;;;;;0.50;0.50;;;;;;;5.57;75.60;99757.69;5046747;28;20021;-63
2023/03/18 00:55:42;;;;;;;0.50;0.50;;;;;;;5.61;75.46;99761.16;5046348;28;20045;-63
2023/03/18 00:58:09;;;;;;;1.52;1.42;;;;;;;5.61;75.48;99762.00;5046402;28;20033;-62
2023/03/18 01:00:36;;;;;;;0.63;0.63;;;;;;;5.66;75.66;99764.56;5046519;28;20040;-63
2023/03/18 01:03:03;;;;;;;4.32;4.10;;;;;;;5.63;75.56;99765.44;5046401;28;20021;-61
2023/03/18 01:05:30;;;;;;;0.85;0.85;;;;;;;5.69;75.69;99765.44;5045816;28;20028;-61
2023/03/18 01:07:56;;;;;;;0.50;0.50;;;;;;;5.64;75.82;99762.00;5046154;28;20032;-62
2023/03/18 01:10:23;;;;;;;0.40;0.40;;;;;;;5.67;76.04;99756.84;5046236;28;20045;-62
2023/03/18 01:12:49;;;;;;;0.88;0.88;;;;;;;5.65;76.09;99748.28;5046388;28;20017;-61
2023/03/18 01:15:16;;;;;;;0.70;0.70;;;;;;;5.72;76.17;99745.72;5046052;28;20080;-61
2023/03/18 01:17:43;;;;;;;0.40;0.40;;;;;;;5.61;76.67;99746.53;5045790;28;20103;-63
2023/03/18 01:20:10;;;;;;;0.50;0.50;;;;;;;5.62;76.98;99758.56;5045604;28;20038;-62
2023/03/18 01:22:36;;;;;;;1.17;1.15;;;;;;;5.59;77.09;99753.44;5046016;28;20053;-62
2023/03/18 01:25:02;;;;;;;0.70;0.70;;;;;;;5.55;77.42;99751.69;5046025;28;20025;-62
2023/03/18 01:27:27;;;;;;;0.43;0.43;;;;;;;5.54;77.69;99749.97;5046124;28;20541;-62
2023/03/18 01:29:53;;;;;;;0.50;0.50;;;;;;;5.52;77.71;99736.22;5045858;28;20478;-62
2023/03/18 01:32:19;;;;;;;0.55;0.55;;;;;;;5.51;78.24;99743.09;5045600;28;20681;-63
2023/03/18 01:34:45;;;;;;;0.98;0.98;;;;;;;5.51;78.39;99750.81;5045889;28;20109;-62
2023/03/18 01:37:10;;;;;;;1.08;1.08;;;;;;;5.65;78.32;99752.56;5045877;28;20104;-62
2023/03/18 01:39:36;;;;;;;0.50;0.50;;;;;;;5.62;78.36;99742.25;5045608;28;20017;-63
2023/03/18 01:42:02;;;;;;;0.60;0.60;;;;;;;5.60;78.57;99757.72;5045723;28;20381;-62
2023/03/18 01:44:28;;;;;;;0.40;0.40;;;;;;;5.48;79.19;99755.13;5045782;28;20094;-62
2023/03/18 01:46:53;;;;;;;0.40;0.40;;;;;;;5.42;79.61;99758.50;5045823;28;20029;-62
2023/03/18 01:49:25;;;;;;;0.50;0.50;;;;;;;5.36;79.95;99751.66;5045317;28;20025;-61
2023/03/18 01:51:57;;;;;;;4.85;3.45;;;;;;;5.32;80.41;99752.47;5045650;28;20048;-63
2023/03/18 01:54:24;;;;;;;0.82;0.82;;;;;;;5.37;80.51;99745.63;5045497;28;20089;-61
2023/03/18 01:56:52;;;;;;;0.40;0.40;;;;;;;5.42;80.10;99749.09;5045378;28;20021;-62
2023/03/18 01:59:21;;;;;;;0.50;0.50;;;;;;;5.39;80.41;99746.50;5045292;28;20100;-62
2023/03/18 02:01:52;;;;;;;0.98;0.98;;;;;;;5.45;80.30;99740.50;5045533;28;20462;-62
2023/03/18 02:04:20;;;;;;;0.95;0.95;;;;;;;5.46;80.24;99743.09;5045125;28;20132;-62
2023/03/18 02:06:45;;;;;;;0.65;0.65;;;;;;;5.51;80.16;99739.66;5045480;28;20068;-62
2023/03/18 02:09:12;;;;;;;8.40;3.90;;;;;;;5.63;79.55;99733.66;5045279;28;20063;-64
2023/03/18 02:11:42;;;;;;;0.93;0.93;;;;;;;5.58;79.92;99737.09;5045024;28;20597;-62
2023/03/18 02:14:12;;;;;;;1.98;1.88;;;;;;;5.56;79.99;99743.09;5045306;28;20036;-64
2023/03/18 02:16:45;;;;;;;0.40;0.40;;;;;;;5.53;80.20;99732.78;5044778;28;20096;-62
2023/03/18 02:19:41;;;;;;;0.40;0.40;;;;;;;5.57;79.88;99737.94;5044562;28;20025;-62
2023/03/18 02:22:28;;;;;;;0.40;0.40;;;;;;;5.53;80.26;99737.94;5044905;28;20029;-61
2023/03/18 02:25:12;;;;;;;0.50;0.50;;;;;;;5.57;80.32;99742.25;5045021;28;20029;-62
2023/03/18 02:27:43;;;;;;;0.50;0.50;;;;;;;5.57;80.08;99739.69;5044954;28;20107;-62
2023/03/18 02:30:13;;;;;;;1.88;1.73;;;;;;;5.62;80.12;99744.84;5045157;28;20017;-61
2023/03/18 02:32:40;;;;;;;0.50;0.50;;;;;;;5.64;80.07;99751.69;5044985;28;20113;-64
2023/03/18 02:35:08;;;;;;;0.50;0.50;;;;;;;5.60;80.14;99738.81;5044748;28;20078;-71
2023/03/18 02:37:34;;;;;;;0.65;0.65;;;;;;;5.64;80.11;99749.13;5044932;28;20022;-63
2023/03/18 02:40:15;;;;;;;0.70;0.70;;;;;;;5.60;80.11;99749.97;5044686;28;20026;-64
2023/03/18 02:42:41;;;;;;;0.60;0.60;;;;;;;5.60;80.19;99737.09;5044805;28;20025;-64
2023/03/18 02:45:16;;;;;;;0.40;0.40;;;;;;;5.58;80.64;99742.25;5045003;28;20318;-64
2023/03/18 02:47:46;;;;;;;0.93;0.93;;;;;;;5.62;80.49;99740.56;5045062;28;20025;-63
2023/03/18 02:50:11;;;;;;;0.40;0.40;;;;;;;5.60;80.52;99737.09;5044693;28;20029;-63
2023/03/18 02:52:37;;;;;;;0.40;0.40;;;;;;;5.58;80.54;99739.69;5044704;28;20105;-64
2023/03/18 02:55:03;;;;;;;1.02;1.02;;;;;;;5.62;80.58;99739.69;5044806;28;20095;-64
2023/03/18 02:57:28;;;;;;;0.40;0.40;;;;;;;5.66;80.43;99743.97;5045020;28;20545;-64
2023/03/18 02:59:54;;;;;;;0.50;0.50;;;;;;;5.69;80.19;99731.09;5044556;28;20359;-64
2023/03/18 03:02:19;;;;;;;0.60;0.60;;;;;;;5.61;80.29;99725.09;5044539;28;20030;-64
2023/03/18 03:04:46;;;;;;;0.40;0.40;;;;;;;5.58;80.21;99724.22;5044504;28;20026;-65
2023/03/18 03:07:12;;;;;;;0.43;0.43;;;;;;;5.60;80.54;99728.50;5044498;28;20049;-65
2023/03/18 03:09:37;;;;;;;0.47;0.47;;;;;;;5.67;80.39;99725.94;5044851;28;20023;-65
2023/03/18 03:12:03;;;;;;;1.45;1.45;;;;;;;5.57;80.37;99719.91;5044835;28;20025;-66
2023/03/18 03:14:28;;;;;;;3.20;1.58;;;;;;;5.44;80.72;99711.34;5044575;28;20026;-64
2023/03/18 03:16:54;;;;;;;0.40;0.40;;;;;;;5.49;81.09;99715.63;5044452;28;20072;-65
2023/03/18 03:19:19;;;;;;;0.40;0.40;;;;;;;5.48;80.97;99716.50;5044130;28;20101;-65
2023/03/18 03:21:45;;;;;;;0.50;0.50;;;;;;;5.49;80.98;99726.78;5043227;28;20061;-64
2023/03/18 03:24:10;;;;;;;0.40;0.40;;;;;;;5.44;81.31;99718.19;5044388;28;20117;-64
2023/03/18 03:26:35;;;;;;;0.50;0.50;;;;;;;5.47;81.20;99723.34;5044556;28;20064;-65
2023/03/18 03:29:03;;;;;;;7.40;3.00;;;;;;;5.53;81.12;99700.19;5045936;28;20021;-64
2023/03/18 03:31:28;;;;;;;0.45;0.45;;;;;;;5.59;80.87;99717.38;5047879;28;20362;-64
2023/03/18 03:33:54;;;;;;;0.82;0.82;;;;;;;5.56;80.72;99712.19;5047640;28;20531;-64
2023/03/18 03:36:19;;;;;;;1.77;1.67;;;;;;;5.63;80.93;99718.22;5047947;28;20030;-67
2023/03/18 03:38:45;;;;;;;0.50;0.50;;;;;;;5.61;81.11;99714.81;5047787;28;20354;-67
2023/03/18 03:41:11;;;;;;;0.45;0.45;;;;;;;5.59;81.21;99722.53;5047869;28;20072;-63
2023/03/18 03:43:39;;;;;;;0.95;0.95;;;;;;;5.57;81.17;99716.50;5047819;28;20037;-64
2023/03/18 03:46:05;;;;;;;0.52;0.52;;;;;;;5.70;81.07;99709.66;5063249;28;20048;-64
2023/03/18 03:48:31;;;;;;;0.50;0.50;;;;;;;5.53;81.52;99697.59;5047711;28;20029;-64
2023/03/18 03:50:57;;;;;;;2.10;1.95;;;;;;;5.58;82.04;99718.22;5047649;28;20022;-64
2023/03/18 03:53:23;;;;;;;1.92;1.60;;;;;;;5.49;82.47;99720.78;5047770;28;20029;-64
2023/03/18 03:55:49;;;;;;;0.50;0.50;;;;;;;5.49;82.64;99720.78;5047613;28;20033;-64
2023/03/18 03:58:15;;;;;;;0.50;0.50;;;;;;;5.40;83.27;99731.94;5047466;28;20026;-64
2023/03/18 04:00:40;;;;;;;0.50;0.50;;;;;;;5.39;83.28;99732.78;5047496;28;20029;-65
2023/03/18 04:03:05;;;;;;;1.80;1.70;;;;;;;5.45;83.18;99725.06;5047446;28;20024;-64
2023/03/18 04:05:31;;;;;;;0.50;0.50;;;;;;;5.48;83.17;99730.22;5047360;28;20045;-64
2023/03/18 04:08:00;;;;;;;0.63;0.63;;;;;;;5.42;83.43;99728.50;5047393;28;20048;-66
2023/03/18 04:10:26;;;;;;;2.08;1.90;;;;;;;5.49;83.24;99729.38;5047602;28;20040;-66
2023/03/18 04:12:52;;;;;;;0.70;0.70;;;;;;;5.46;83.22;99732.78;5047396;28;20040;-65
2023/03/18 04:15:20;;;;;;;0.50;0.50;;;;;;;5.51;83.23;99730.22;5047461;28;20021;-65
2023/03/18 04:17:45;;;;;;;0.40;0.40;;;;;;;5.44;83.42;99729.38;5047114;28;20048;-65
2023/03/18 04:20:11;;;;;;;0.75;0.75;;;;;;;5.49;83.24;99728.50;5046850;28;20021;-64
2023/03/18 04:22:37;;;;;;;0.40;0.40;;;;;;;5.48;83.32;99721.66;5047326;28;20032;-64
2023/03/18 04:25:03;;;;;;;0.40;0.40;;;;;;;5.53;83.01;99718.22;5046957;28;20482;-65
2023/03/18 04:27:29;;;;;;;0.65;0.65;;;;;;;5.56;82.70;99715.63;5062402;28;20029;-66
2023/03/18 04:29:55;;;;;;;0.60;0.60;;;;;;;5.68;82.42;99706.22;5046859;28;20028;-66
2023/03/18 04:32:20;;;;;;;0.93;0.93;;;;;;;5.61;82.87;99710.50;5047091;28;20045;-68
2023/03/18 04:34:45;;;;;;;0.93;0.93;;;;;;;5.42;83.60;99705.31;5046645;28;20496;-65
2023/03/18 04:37:13;;;;;;;0.50;0.50;;;;;;;5.57;83.86;99709.63;5046938;28;20032;-66
2023/03/18 04:39:39;;;;;;;0.63;0.63;;;;;;;5.42;83.84;99710.47;5046757;28;20025;-65
2023/03/18 04:42:05;;;;;;;0.50;0.50;;;;;;;5.28;84.70;99707.88;5046268;28;20036;-65
2023/03/18 04:44:30;;;;;;;0.50;0.50;;;;;;;5.12;85.75;99712.13;5046747;28;20026;-65
2023/03/18 04:46:56;;;;;;;0.65;0.65;;;;;;;5.24;85.16;99701.00;5046974;28;20025;-67
2023/03/18 04:49:22;;;;;;;0.80;0.80;;;;;;;5.39;85.04;99695.03;5046416;28;20033;-68
2023/03/18 04:51:47;;;;;;;0.45;0.45;;;;;;;5.14;85.85;99701.84;5046670;28;20051;-66
2023/03/18 04:54:13;;;;;;;0.52;0.52;;;;;;;5.11;86.43;99699.25;5046571;28;20076;-66
2023/03/18 04:56:39;;;;;;;0.77;0.77;;;;;;;5.05;86.78;99702.66;5046411;28;20021;-65
2023/03/18 04:59:05;;;;;;;0.70;0.70;;;;;;;4.95;87.51;99712.09;5046376;28;20026;-66
2023/03/18 05:01:30;;;;;;;3.95;1.80;;;;;;;4.96;87.51;99709.53;5046350;28;20094;-65
2023/03/18 05:03:56;;;;;;;0.50;0.50;;;;;;;4.99;87.49;99712.94;5061405;28;20079;-64
2023/03/18 05:06:27;;;;;;;0.40;0.40;;;;;;;4.99;87.53;99716.38;5046242;28;20026;-64
2023/03/18 05:08:53;;;;;;;0.40;0.40;;;;;;;5.03;87.38;99719.81;5046185;28;20056;-66
2023/03/18 05:11:19;;;;;;;0.50;0.50;;;;;;;5.04;87.43;99713.81;5046279;28;20029;-65
2023/03/18 05:13:45;;;;;;;0.40;0.40;;;;;;;5.00;87.24;99718.09;5046249;28;20025;-65
2023/03/18 05:16:10;;;;;;;0.50;0.50;;;;;;;5.12;87.18;99724.13;5046104;28;20072;-64
2023/03/18 05:18:36;;;;;;;0.63;0.63;;;;;;;5.12;87.00;99719.84;5045894;28;20021;-65
2023/03/18 05:21:02;;;;;;;2.85;2.63;;;;;;;5.19;86.65;99718.16;5046052;28;20025;-65
2023/03/18 05:23:28;;;;;;;0.40;0.40;;;;;;;5.18;86.53;99713.84;5046032;28;20036;-64
2023/03/18 05:25:54;;;;;;;6.47;5.85;;;;;;;5.19;86.18;99715.59;5046146;28;20029;-65
2023/03/18 05:28:20;;;;;;;0.45;0.45;;;;;;;5.20;86.09;99728.47;5045873;28;20026;-65
2023/03/18 05:30:46;;;;;;;0.40;0.40;;;;;;;5.20;86.17;99731.03;5045982;28;20027;-66
2023/03/18 05:33:12;;;;;;;1.30;1.30;;;;;;;5.28;86.06;99732.75;5045890;28;20429;-67
2023/03/18 05:35:38;;;;;;;0.60;0.60;;;;;;;5.24;86.02;99728.47;5045664;28;20029;-67
2023/03/18 05:38:05;;;;;;;0.40;0.40;;;;;;;5.27;86.16;99726.72;5045831;28;20043;-66
2023/03/18 05:40:31;;;;;;;1.17;1.17;;;;;;;5.24;85.93;99720.75;5046011;28;20029;-67
2023/03/18 05:42:56;;;;;;;0.60;0.60;;;;;;;5.26;85.98;99731.88;5045705;28;20029;-66
2023/03/18 05:45:23;;;;;;;0.40;0.40;;;;;;;5.12;85.96;99727.56;5045839;28;20025;-67
2023/03/18 05:47:48;;;;;;;0.60;0.60;;;;;;;5.21;85.94;99742.16;5045685;28;20029;-67
2023/03/18 05:50:29;;;;;;;0.45;0.45;;;;;;;5.17;86.13;99736.16;5045344;28;20043;-65
2023/03/18 05:52:54;;;;;;;0.75;0.75;;;;;;;5.20;85.89;99728.47;5044484;28;20458;-65
2023/03/18 05:55:20;;;;;;;0.95;0.95;;;;;;;5.20;85.71;99737.88;5045675;28;20037;-66
2023/03/18 05:57:47;;;;;;;0.50;0.50;;;;;;;5.11;85.90;99725.88;5060948;28;20026;-66
2023/03/18 06:00:14;;;;;;;0.65;0.65;;;;;;;5.12;86.13;99732.72;5045400;28;20017;-66
2023/03/18 06:02:40;;;;;;;0.45;0.45;;;;;;;5.07;86.29;99737.84;5045527;28;20017;-68
2023/03/18 06:05:06;;;;;;;0.70;0.68;;;;;;;4.98;86.63;99727.53;5060359;28;20055;-67
2023/03/18 06:07:32;;;;;;;0.50;0.50;;;;;;;4.85;87.33;99731.75;5045434;28;20569;-65
2023/03/18 06:09:57;;;;;;;0.40;0.40;;;;;;;4.81;87.94;99735.16;5045308;28;20075;-63
2023/03/18 06:12:26;;;;;;;1.05;1.05;;;;;;;4.78;88.36;99735.13;5043864;28;20089;-63
2023/03/18 06:14:52;;;;;;;0.93;0.93;;;;;;;4.79;88.39;99726.59;5045328;28;20025;-64
2023/03/18 06:17:18;;;;;;;4.25;2.70;;;;;;;4.78;88.62;99735.13;5044878;28;20056;-63
2023/03/18 06:19:44;;;;;;;0.50;0.50;;;;;;;4.73;88.87;99729.13;5044874;28;20040;-64
2023/03/18 06:22:11;;;;;;;1.20;1.20;;;;;;;4.70;89.02;99714.53;5044884;28;20025;-64
2023/03/18 06:24:36;;;;;;;0.40;0.40;;;;;;;4.78;89.09;99737.72;5045324;28;20028;-64
2023/03/18 06:27:02;;;;;;;0.50;0.50;;;;;;;4.81;89.25;99737.72;5045038;28;20029;-64
2023/03/18 06:29:28;;;;;;;0.40;0.40;;;;;;;4.79;89.92;99749.75;5044926;28;20045;-63
2023/03/18 06:31:54;;;;;;;0.50;0.50;;;;;;;4.72;90.13;99753.97;5043833;28;20081;-64
2023/03/18 06:34:19;;;;;;;0.50;0.50;;;;;;;4.62;90.81;99758.22;5044779;28;20033;-63
2023/03/18 06:36:45;;;;;;;77.82;6.53;;;;;;;4.65;91.22;99763.38;5044931;28;20040;-63
2023/03/18 06:39:11;;;;;;;0.47;0.47;;;;;;;4.66;91.07;99762.53;5060157;28;20025;-63
2023/03/18 06:41:36;;;;;;;2.72;1.48;;;;;;;4.61;91.37;99751.38;5045063;28;20494;-64
2023/03/18 06:44:03;;;;;;;4.97;2.35;;;;;;;4.71;91.04;99762.56;5044819;28;20104;-63
2023/03/18 06:46:29;;;;;;;2.15;2.05;;;;;;;4.82;90.93;99760.88;5044952;28;20200;-63
2023/03/18 06:48:54;;;;;;;0.40;0.40;;;;;;;4.66;91.56;99770.25;5044817;28;20022;-63
2023/03/18 06:51:20;;;;;;;0.50;0.50;;;;;;;4.71;91.75;99778.00;5044826;28;20022;-64
2023/03/18 06:53:46;;;;;;;0.40;0.40;;;;;;;4.70;92.00;99771.97;5044972;28;20104;-64
2023/03/18 06:56:15;;;;;;;0.50;0.50;;;;;;;4.70;92.27;99781.41;5044773;28;20556;-63
2023/03/18 06:58:41;;;;;;;0.40;0.40;;;;;;;4.79;92.14;99786.59;5044676;28;20021;-66
2023/03/18 07:01:07;;;;;;;0.50;0.50;;;;;;;4.81;92.05;99782.31;5044764;28;20021;-63
2023/03/18 07:03:33;;;;;;;1.35;1.35;;;;;;;4.82;92.32;99785.75;5045578;28;20032;-64
2023/03/18 07:05:58;;;;;;;0.65;0.65;;;;;;;4.84;92.30;99784.91;5048587;28;20036;-64
2023/03/18 07:08:24;;;;;;;0.50;0.50;;;;;;;4.79;92.14;99776.28;5048409;28;20041;-63
2023/03/18 07:10:53;;;;;;;0.75;0.75;;;;;;;4.81;92.19;99776.31;5048752;28;20029;-63
2023/03/18 07:13:18;;;;;;;0.40;0.40;;;;;;;4.78;92.04;99778.84;5048651;28;20057;-63
2023/03/18 07:15:44;;;;;;;0.40;0.40;;;;;;;4.77;91.89;99785.75;5048457;28;20040;-64
2023/03/18 07:18:10;;;;;;;0.55;0.55;;;;;;;4.76;92.05;99778.84;5048351;28;20029;-63
2023/03/18 07:20:35;;;;;;;0.40;0.40;;;;;;;4.77;92.28;99788.31;5048299;28;20029;-63
2023/03/18 07:23:02;;;;;;;0.50;0.50;;;;;;;4.72;92.23;99782.28;5048370;28;20034;-64
2023/03/18 07:25:28;;;;;;;0.50;0.50;;;;;;;4.75;92.22;99791.72;5048128;28;20032;-64
2023/03/18 07:27:54;;;;;;;0.40;0.40;;;;;;;4.73;92.34;99789.13;5047215;28;20021;-63
2023/03/18 07:30:20;;;;;;;0.50;0.50;;;;;;;4.71;92.39;99791.69;5048173;28;20127;-64
2023/03/18 07:32:46;;;;;;;0.40;0.40;;;;;;;4.69;92.72;99788.28;5048283;28;20466;-63
2023/03/18 07:35:15;;;;;;;0.40;0.40;;;;;;;4.66;92.84;99780.53;5047974;28;20052;-64
2023/03/18 07:37:41;;;;;;;0.50;0.50;;;;;;;4.68;93.04;99791.66;5048114;28;20104;-63
2023/03/18 07:40:08;;;;;;;0.45;0.45;;;;;;;4.72;93.33;99797.69;5048068;28;20521;-64
2023/03/18 07:42:34;;;;;;;0.40;0.40;;;;;;;4.83;93.37;99808.03;5048125;28;20047;-63
2023/03/18 07:45:00;;;;;;;0.40;0.40;;;;;;;4.90;93.42;99801.22;5063392;28;20024;-63
2023/03/18 07:47:25;;;;;;;0.40;0.40;;;;;;;4.90;93.29;99804.66;5048261;28;20025;-63
2023/03/18 07:49:51;;;;;;;0.50;0.50;;;;;;;4.86;93.17;99796.94;5047547;28;20434;-63
2023/03/18 07:52:17;;;;;;;0.40;0.40;;;;;;;4.85;93.26;99798.63;5047925;28;20022;-64
2023/03/18 07:54:43;;;;;;;0.40;0.40;;;;;;;4.81;93.32;99794.31;5048024;28;20056;-63
2023/03/18 07:57:09;;;;;;;0.80;0.80;;;;;;;4.73;93.43;99788.28;5047708;28;20026;-64
2023/03/18 07:59:36;;;;;;;0.40;0.40;;;;;;;4.80;93.58;99800.31;5047555;28;20029;-63
2023/03/18 08:02:03;;;;;;;0.50;0.50;;;;;;;4.76;93.63;99801.16;5047668;28;20076;-64
2023/03/18 08:04:30;;;;;;;0.40;0.40;;;;;;;4.69;93.54;99789.97;5047471;28;20022;-64
2023/03/18 08:06:56;;;;;;;0.50;0.50;;;;;;;4.65;93.78;99794.22;5047548;28;20033;-65
2023/03/18 08:09:22;;;;;;;6.25;3.67;;;;;;;4.62;93.78;99793.38;5046991;28;20347;-66
2023/03/18 08:11:48;;;;;;;2.80;1.40;;;;;;;4.64;94.18;99794.22;5047659;28;20029;-64
2023/03/18 08:14:13;;;;;;;0.50;0.50;;;;;;;4.66;94.15;99792.53;5047437;28;20029;-65
2023/03/18 08:16:39;;;;;;;0.55;0.55;;;;;;;4.64;94.49;99799.34;5046195;28;20051;-67
2023/03/18 08:19:05;;;;;;;0.45;0.45;;;;;;;4.66;94.55;99801.09;5047006;28;20077;-64
2023/03/18 08:21:30;;;;;;;0.50;0.50;;;;;;;4.69;94.73;99800.25;5047159;28;20033;-64
2023/03/18 08:23:56;;;;;;;0.40;0.40;;;;;;;4.65;95.02;99783.94;5047267;28;20032;-63
2023/03/18 08:26:21;;;;;;;0.40;0.40;;;;;;;4.81;95.36;99795.19;5047041;28;20052;-64
2023/03/18 08:28:47;;;;;;;0.40;0.40;;;;;;;4.87;95.33;99807.22;5047239;28;20025;-64
2023/03/18 08:31:13;;;;;;;0.50;0.50;;;;;;;4.86;95.40;99790.06;5047144;28;20283;-65
2023/03/18 08:33:40;;;;;;;1.35;1.30;;;;;;;4.92;95.62;99802.94;5046981;28;20029;-64
2023/03/18 08:36:07;;;;;;;0.40;0.40;;;;;;;4.92;95.66;99802.94;5062199;28;20482;-64
2023/03/18 08:38:32;;;;;;;0.50;0.50;;;;;;;4.85;95.64;99785.78;5046831;28;20026;-64
2023/03/18 08:40:58;;;;;;;0.45;0.45;;;;;;;5.00;95.76;99802.16;5046975;28;20044;-64
2023/03/18 08:43:24;;;;;;;0.40;0.40;;;;;;;5.02;95.94;99805.56;5046868;28;20021;-65
2023/03/18 08:45:53;;;;;;;0.50;0.50;;;;;;;5.10;96.15;99806.47;5046736;28;20031;-65
2023/03/18 08:48:20;;;;;;;0.50;0.50;;;;;;;5.15;96.23;99799.63;5062215;28;20433;-64
2023/03/18 08:50:45;;;;;;;1.70;1.60;;;;;;;5.13;96.19;99796.19;5046610;28;20021;-64
2023/03/18 08:53:12;;;;;;;0.47;0.47;;;;;;;5.30;96.62;99796.25;5046817;28;20036;-65
2023/03/18 08:55:38;;;;;;;0.40;0.40;;;;;;;5.49;97.07;99801.47;5046643;28;20025;-65
2023/03/18 08:58:04;;;;;;;0.40;0.40;;;;;;;5.67;96.76;99807.50;5046439;28;20017;-63
2023/03/18 09:00:31;;;;;;;0.40;0.40;;;;;;;5.72;96.82;99810.09;5046513;28;20075;-63
2023/03/18 09:02:57;;;;;;;0.45;0.45;;;;;;;5.77;96.83;99808.38;5061955;28;20490;-63
2023/03/18 09:05:23;;;;;;;0.40;0.40;;;;;;;5.80;96.65;99816.09;5046235;28;20029;-62
2023/03/18 09:07:50;;;;;;;0.40;0.40;;;;;;;5.72;96.31;99815.25;5046484;28;20146;-65
2023/03/18 09:10:17;;;;;;;0.50;0.50;;;;;;;5.60;96.16;99811.78;5046579;28;20021;-64
2023/03/18 09:12:44;;;;;;;0.40;0.40;;;;;;;5.48;96.27;99807.44;5046490;28;20030;-64
2023/03/18 09:15:11;;;;;;;0.40;0.40;;;;;;;5.47;96.30;99818.63;5046236;28;20018;-64
2023/03/18 09:17:40;;;;;;;0.40;0.40;;;;;;;5.51;96.85;99822.06;5046070;28;20376;-65
2023/03/18 09:20:08;;;;;;;0.40;0.40;;;;;;;5.57;97.04;99822.91;5045844;28;20029;-65
2023/03/18 09:22:34;;;;;;;0.40;0.40;;;;;;;5.65;97.06;99815.25;5046251;28;20112;-66
2023/03/18 09:25:00;;;;;;;0.40;0.40;;;;;;;5.77;97.47;99823.81;5045959;28;20039;-65
2023/03/18 09:27:26;;;;;;;2.15;1.60;;;;;;;5.85;97.47;99822.13;5045733;28;20021;-65
2023/03/18 09:29:51;;;;;;;0.40;0.40;;;;;;;5.89;97.37;99829.03;5046051;28;20048;-66
2023/03/18 09:32:17;;;;;;;0.45;0.45;;;;;;;5.96;97.48;99837.59;5044688;28;20021;-66
2023/03/18 09:34:46;;;;;;;0.40;0.40;;;;;;;6.07;97.58;99837.66;5045639;28;20025;-65
2023/03/18 09:37:13;;;;;;;0.47;0.47;;;;;;;6.14;97.66;99835.94;5045804;28;20021;-64
2023/03/18 09:39:40;;;;;;;0.40;0.40;;;;;;;6.13;97.81;99822.22;5045890;28;20084;-65
2023/03/18 09:42:58;;;;;;;0.40;0.40;;;;;;;6.29;97.76;99846.25;5045891;28;20026;-65
2023/03/18 09:45:32;;;;;;;0.40;0.40;;;;;;;6.32;97.55;99842.81;5023334;28;20109;-64
2023/03/18 09:48:42;;;;;;;0.40;0.40;;;;;;;6.37;97.88;99850.56;5023856;28;20530;-69
2023/03/18 09:51:45;;;;;;;0.40;0.40;;;;;;;6.41;97.73;99863.44;5023530;28;20093;-67
2023/03/18 09:54:22;;;;;;;0.40;0.40;;;;;;;6.43;97.75;99869.47;5023322;28;20038;-66
2023/03/18 09:56:49;;;;;;;0.40;0.40;;;;;;;6.44;97.62;99866.03;5023337;28;20034;-62
2023/03/18 09:59:27;;;;;;;0.40;0.40;;;;;;;6.40;97.48;99856.59;5022965;28;20042;-64
2023/03/18 10:01:56;;;;;;;0.40;0.40;;;;;;;6.48;97.72;99869.47;5023463;28;20062;-66
2023/03/18 10:04:26;;;;;;;0.40;0.40;;;;;;;6.53;97.41;99877.22;5023013;28;20057;-66
2023/03/18 10:07:07;;;;;;;0.40;0.40;;;;;;;6.51;97.31;99878.91;5022945;28;20041;-63
2023/03/18 10:09:43;;;;;;;0.50;0.50;;;;;;;6.48;97.20;99873.75;5022908;28;20524;-65
2023/03/18 10:12:19;;;;;;;0.40;0.40;;;;;;;6.46;97.01;99876.34;5023113;28;20096;-63
2023/03/18 10:14:47;;;;;;;0.45;0.45;;;;;;;6.47;97.30;99872.06;5023152;28;20102;-63
2023/03/18 10:17:40;;;;;;;0.40;0.40;;;;;;;6.51;97.26;99873.75;5023076;28;20053;-63
2023/03/18 10:20:17;;;;;;;0.40;0.40;;;;;;;6.69;97.87;99868.56;5037430;28;20125;-63
2023/03/18 10:23:01;;;;;;;0.40;0.40;;;;;;;6.89;98.24;99872.84;5045087;28;20077;-62
2023/03/18 10:25:42;;;;;;;0.50;0.50;;;;;;;7.05;98.10;99877.97;5045229;28;20079;-63
2023/03/18 10:28:46;;;;;;;0.40;0.40;;;;;;;7.15;97.84;99881.41;5044985;28;20025;-63
2023/03/18 10:31:33;;;;;;;0.40;0.40;;;;;;;7.12;97.56;99877.13;5022958;28;20050;-64
2023/03/18 10:34:02;;;;;;;0.40;0.40;;;;;;;7.10;97.76;99884.00;5022810;28;20046;-64
2023/03/18 10:36:38;;;;;;;0.40;0.40;;;;;;;7.10;97.76;99875.38;5022815;28;20556;-62
2023/03/18 10:39:14;;;;;;;0.40;0.40;;;;;;;7.11;97.69;99875.38;5023696;28;20091;-63
2023/03/18 10:41:42;;;;;;;0.40;0.40;;;;;;;7.09;97.31;99876.25;5010300;28;20117;-62
2023/03/18 10:44:20;;;;;;;0.40;0.40;;;;;;;7.08;97.53;99865.06;5026653;28;20033;-63
2023/03/18 10:46:46;;;;;;;0.40;0.40;;;;;;;7.10;97.52;99870.22;5026439;28;20064;-63
2023/03/18 10:49:20;;;;;;;0.40;0.40;;;;;;;7.06;97.30;99861.66;5026356;28;20029;-64
2023/03/18 10:52:10;;;;;;;0.40;0.40;;;;;;;7.09;97.86;99874.56;5026512;28;20034;-62
2023/03/18 10:54:40;;;;;;;0.40;0.40;;;;;;;7.03;97.44;99875.41;5026525;28;20034;-63
2023/03/18 10:57:08;;;;;;;0.40;0.40;;;;;;;6.93;97.16;99874.56;5026405;28;20472;-64
2023/03/18 10:59:34;;;;;;;0.50;0.50;;;;;;;6.93;97.58;99871.97;5026274;28;20088;-62
2023/03/18 11:02:13;;;;;;;0.40;0.40;;;;;;;6.90;97.62;99872.00;5026388;28;20026;-63
2023/03/18 11:04:53;;;;;;;0.40;0.40;;;;;;;6.88;97.40;99872.88;5033075;28;20116;-63
2023/03/18 11:07:24;;;;;;;0.40;0.40;;;;;;;6.86;97.40;99872.00;5048561;28;20026;-64
2023/03/18 11:09:51;;;;;;;0.50;0.50;;;;;;;6.81;97.83;99870.28;5048502;28;20025;-64
2023/03/18 11:12:17;;;;;;;0.50;0.50;;;;;;;6.75;97.32;99874.59;5048481;28;20026;-63
2023/03/18 11:14:48;;;;;;;0.40;0.40;;;;;;;6.59;97.25;99882.34;5048441;28;20104;-64
2023/03/18 11:17:25;;;;;;;0.50;0.50;;;;;;;6.44;96.80;99883.22;5047921;28;20527;-62
2023/03/18 11:20:13;;;;;;;0.73;0.73;;;;;;;6.50;97.64;99883.19;5047977;28;20504;-63
2023/03/18 11:22:44;;;;;;;0.40;0.40;;;;;;;6.56;98.43;99877.19;5048169;28;20029;-64
2023/03/18 11:25:10;;;;;;;0.50;0.50;;;;;;;6.71;98.82;99883.22;5048199;28;20073;-64
2023/03/18 11:27:44;;;;;;;0.40;0.40;;;;;;;6.81;99.10;99877.16;5048146;28;20033;-63
2023/03/18 11:30:18;;;;;;;1.45;1.02;;;;;;;6.81;98.57;99869.44;5063364;28;20021;-63
2023/03/18 11:33:02;;;;;;;0.40;0.40;;;;;;;6.77;98.17;99885.78;5048133;28;20017;-63
2023/03/18 11:35:50;;;;;;;0.40;0.40;;;;;;;6.83;98.96;99890.94;5047997;28;20029;-62
2023/03/18 11:38:27;;;;;;;0.40;0.40;;;;;;;6.85;98.96;99883.19;5047804;28;20025;-63
2023/03/18 11:41:12;;;;;;;0.40;0.40;;;;;;;6.82;99.06;99877.16;5047906;28;20370;-63
2023/03/18 11:43:38;;;;;;;0.50;0.50;;;;;;;6.90;99.15;99881.47;5047811;28;20021;-62
2023/03/18 11:46:06;;;;;;;0.40;0.40;;;;;;;6.91;99.19;99883.19;5047923;28;20025;-66
2023/03/18 11:48:38;;;;;;;0.40;0.40;;;;;;;6.99;99.70;99883.16;5047677;28;20014;-63